Time;durP1;ratioP1;P1;durP2;ratioP2;P2;SDS_P1;SDS_P2;PMS_P1;PMS_P2;Temp;Humidity;BMP_temperature;BMP_pressure;BME280_temperature;BME280_humidity;BME280_pressure;Samples;Min_cycle;Max_cycle;Signal;HPM_P1;HPM_P2
2023/10/12 00:02:08;;;;;;;13.50;7.70;;;;;;;16.77;74.43;99337.13;217257;1269;140067;-74
2023/10/12 00:07:17;;;;;;;15.10;7.60;;;;;;;16.78;74.47;99332.48;217629;1267;233184;-75
2023/10/12 00:12:24;;;;;;;14.20;7.00;;;;;;;16.77;74.45;99333.36;218114;1267;139815;-74
2023/10/12 00:17:29;;;;;;;7.70;6.50;;;;;;;16.74;74.58;99330.86;218561;1267;140639;-75
2023/10/12 00:22:36;;;;;;;9.10;6.00;;;;;;;16.74;74.59;99325.15;216493;1267;140227;-71
2023/10/12 00:27:41;;;;;;;13.50;6.90;;;;;;;16.76;74.51;99320.18;217132;1267;140731;-72
2023/10/12 00:32:46;;;;;;;22.20;7.20;;;;;;;16.77;74.43;99319.42;216670;1270;140036;-74
2023/10/12 00:37:54;;;;;;;17.70;7.00;;;;;;;16.78;74.46;99309.82;217945;1267;139944;-73
2023/10/12 00:43:00;;;;;;;11.10;6.80;;;;;;;16.78;74.42;99308.85;217948;1266;140024;-73
2023/10/12 00:48:07;;;;;;;17.40;7.90;;;;;;;16.74;74.40;99305.61;216601;1267;140146;-75
2023/10/12 00:53:22;;;;;;;;;;;;;;;16.72;74.34;99301.59;218048;1267;141563;-74
2023/10/12 00:58:27;;;;;;;14.00;6.40;;;;;;;16.68;74.44;99297.32;216570;1267;126667;-74
2023/10/12 01:03:35;;;;;;;14.80;7.50;;;;;;;16.68;74.47;99291.30;217316;1266;139952;-74
2023/10/12 01:08:43;;;;;;;11.10;6.10;;;;;;;16.68;74.51;99288.13;216273;1267;140143;-74
2023/10/12 01:14:03;;;;;;;13.00;7.70;;;;;;;16.66;74.48;99283.56;216345;1271;140259;-74
2023/10/12 01:19:09;;;;;;;14.20;6.30;;;;;;;16.62;74.56;99276.89;216667;1270;139937;-75
2023/10/12 01:24:14;;;;;;;11.40;6.80;;;;;;;16.64;74.57;99271.79;216432;1268;141391;-74
2023/10/12 01:29:21;;;;;;;11.40;6.80;;;;;;;16.64;74.60;99264.69;217241;1267;140664;-70
2023/10/12 01:34:25;;;;;;;9.00;6.40;;;;;;;16.62;74.59;99263.77;216508;1271;139892;-74
2023/10/12 01:39:30;;;;;;;8.50;6.30;;;;;;;16.61;74.57;99261.89;216577;1270;142038;-74
2023/10/12 01:44:36;;;;;;;14.90;6.90;;;;;;;16.60;74.50;99258.41;217396;1271;141758;-74
2023/10/12 01:49:40;;;;;;;8.30;5.30;;;;;;;16.59;74.55;99250.34;216282;1271;140798;-74
2023/10/12 01:54:49;;;;;;;8.90;5.10;;;;;;;16.58;74.54;99253.84;217777;1267;140961;-74
2023/10/12 01:59:54;;;;;;;7.90;5.40;;;;;;;16.56;74.49;99252.95;216545;1271;139635;-74
2023/10/12 02:05:01;;;;;;;13.60;6.30;;;;;;;16.57;74.43;99246.44;218240;1267;140557;-74
2023/10/12 02:10:11;;;;;;;12.10;7.30;;;;;;;16.57;74.50;99244.71;218554;1267;140389;-73
2023/10/12 02:15:17;;;;;;;8.40;6.00;;;;;;;16.57;74.40;99246.05;219276;1266;139680;-74
2023/10/12 02:20:32;;;;;;;13.70;6.20;;;;;;;16.62;74.44;99245.80;216868;1267;140869;-73
2023/10/12 02:25:50;;;;;;;9.10;6.10;;;;;;;16.66;74.34;99245.24;219261;1267;139991;-74
2023/10/12 02:30:55;;;;;;;7.40;6.10;;;;;;;16.68;74.13;99243.08;218809;1266;140507;-74
2023/10/12 02:36:02;;;;;;;8.70;5.50;;;;;;;16.70;74.11;99237.14;218502;1267;142851;-75
2023/10/12 02:41:12;;;;;;;9.40;6.40;;;;;;;16.72;74.03;99231.41;217026;1267;140600;-73
2023/10/12 02:46:22;;;;;;;11.20;5.90;;;;;;;16.70;73.84;99231.80;217021;1267;141978;-74
2023/10/12 02:51:29;;;;;;;9.20;4.60;;;;;;;16.67;73.86;99225.00;217414;1267;140486;-73
2023/10/12 02:56:36;;;;;;;7.00;5.10;;;;;;;16.61;73.82;99223.00;216306;1267;140631;-73
2023/10/12 03:01:41;;;;;;;11.30;5.60;;;;;;;16.56;73.90;99222.28;216783;1267;139937;-74
2023/10/12 03:06:58;;;;;;;9.40;4.70;;;;;;;16.53;73.96;99227.86;216866;1267;140851;-73
2023/10/12 03:12:06;;;;;;;5.70;4.80;;;;;;;16.49;73.91;99230.61;216551;1270;139972;-73
2023/10/12 03:17:16;;;;;;;;;;;;;;;16.46;74.04;99226.27;217248;1266;141518;-73
2023/10/12 03:22:26;;;;;;;10.60;6.40;;;;;;;16.42;74.14;99222.77;217072;1267;126995;-73
2023/10/12 03:27:34;;;;;;;9.30;5.90;;;;;;;16.38;74.15;99216.30;217179;1267;140844;-74
2023/10/12 03:32:41;;;;;;;11.10;6.20;;;;;;;16.35;74.24;99215.52;216664;1267;140172;-73
2023/10/12 03:37:47;;;;;;;8.60;4.80;;;;;;;16.32;74.29;99228.52;217151;1268;140053;-73
2023/10/12 03:42:55;;;;;;;12.90;6.40;;;;;;;16.29;74.32;99221.33;216802;1268;140028;-74
2023/10/12 03:48:15;;;;;;;11.50;5.40;;;;;;;16.28;74.38;99225.00;216648;1266;139882;-73
2023/10/12 03:53:26;;;;;;;8.70;5.70;;;;;;;16.28;74.47;99225.43;217557;1270;140958;-73
2023/10/12 03:58:39;;;;;;;11.60;5.60;;;;;;;16.26;74.63;99215.50;216652;1268;139785;-74
2023/10/12 04:03:44;;;;;;;12.90;6.30;;;;;;;16.28;74.59;99203.70;219143;1266;141399;-75
2023/10/12 04:08:59;;;;;;;9.90;5.90;;;;;;;16.28;74.55;99201.08;217284;1267;140115;-73
2023/10/12 04:19:32;;;;;;;11.00;5.80;;;;;;;16.27;74.44;99182.57;217854;1266;142251;-74
2023/10/12 04:24:43;;;;;;;6.40;5.20;;;;;;;16.28;74.34;99187.78;218862;1266;140333;-75
2023/10/12 04:29:50;;;;;;;10.70;6.00;;;;;;;16.28;74.45;99181.86;218938;1266;140099;-74
2023/10/12 04:34:57;;;;;;;9.10;4.60;;;;;;;16.31;74.50;99176.61;217789;1266;140586;-73
2023/10/12 04:40:32;;;;;;;5.20;4.40;;;;;;;16.34;74.43;99166.09;218558;1266;140564;-73
2023/10/12 04:51:07;;;;;;;12.10;6.60;;;;;;;16.39;74.22;99175.19;217062;1267;139742;-73
2023/10/12 04:56:18;;;;;;;8.70;5.50;;;;;;;16.39;74.29;99181.76;216231;1267;140169;-73
2023/10/12 05:01:41;;;;;;;9.70;5.60;;;;;;;16.38;74.27;99192.14;219051;1267;140977;-75
2023/10/12 05:07:20;;;;;;;8.50;5.80;;;;;;;16.38;74.27;99186.61;216435;1267;139583;-74
2023/10/12 05:12:14;;;;;;;6.60;5.70;;;;;;;16.37;74.29;99184.79;216722;1269;139509;-72
2023/10/12 05:17:21;;;;;;;7.40;5.30;;;;;;;16.34;74.22;99192.07;217431;1267;139936;-72
2023/10/12 05:22:26;;;;;;;11.50;5.50;;;;;;;16.33;74.18;99192.67;216339;1270;139835;-72
2023/10/12 05:27:39;;;;;;;6.10;5.00;;;;;;;16.31;74.15;99203.89;217448;1268;140302;-71
2023/10/12 05:32:48;;;;;;;12.60;6.30;;;;;;;16.31;74.07;99220.19;217508;1267;139747;-73
2023/10/12 05:37:56;;;;;;;8.40;5.00;;;;;;;16.30;74.16;99220.61;216678;1267;141119;-71
2023/10/12 05:43:16;;;;;;;9.30;6.20;;;;;;;16.32;74.21;99233.47;217269;1267;140033;-71
2023/10/12 05:48:21;;;;;;;11.40;4.80;;;;;;;16.36;74.06;99240.80;217350;1270;140296;-72
2023/10/12 05:53:26;;;;;;;8.60;5.40;;;;;;;16.38;74.08;99233.30;216979;1267;140336;-78
2023/10/12 05:58:33;;;;;;;7.00;6.00;;;;;;;16.43;74.06;99244.13;216884;1268;139952;-70
2023/10/12 06:03:46;;;;;;;10.90;5.60;;;;;;;16.48;73.90;99238.27;217145;1266;139716;-71
2023/10/12 06:08:55;;;;;;;10.20;5.50;;;;;;;16.54;73.83;99234.46;217549;1267;140414;-70
2023/10/12 06:14:05;;;;;;;13.50;6.00;;;;;;;16.64;73.75;99245.95;218107;1268;140620;-69
2023/10/12 06:19:26;;;;;;;8.80;5.30;;;;;;;16.79;73.63;99260.33;216219;1270;139950;-70
2023/10/12 06:24:36;;;;;;;7.70;5.10;;;;;;;16.92;73.40;99265.50;216692;1273;139776;-71
2023/10/12 06:29:41;;;;;;;5.70;4.60;;;;;;;17.02;73.17;99263.71;216152;1269;140101;-77
2023/10/12 06:35:04;;;;;;;12.70;5.50;;;;;;;17.15;72.90;99271.19;216651;1271;140252;-76
2023/10/12 06:45:38;;;;;;;11.60;6.10;;;;;;;17.28;72.58;99287.41;217234;1270;139993;-72
2023/10/12 06:50:44;;;;;;;12.20;4.80;;;;;;;17.29;72.44;99288.14;217579;1269;140555;-72
2023/10/12 06:55:58;;;;;;;7.60;4.50;;;;;;;17.33;72.08;99299.90;215966;1271;140352;-73
2023/10/12 07:06:29;;;;;;;7.40;5.40;;;;;;;17.53;71.68;99283.56;216346;1270;140914;-74
2023/10/12 07:11:39;;;;;;;8.60;5.50;;;;;;;17.77;71.90;99297.73;216508;1271;139679;-74
2023/10/12 07:16:54;;;;;;;14.40;5.60;;;;;;;17.94;71.39;99321.92;216544;1270;139879;-73
2023/10/12 07:22:01;;;;;;;10.00;4.90;;;;;;;17.93;70.89;99310.81;216213;1270;139926;-72
2023/10/12 07:27:13;;;;;;;5.30;4.20;;;;;;;17.91;70.92;99302.51;216275;1270;209732;-72
2023/10/12 07:37:49;;;;;;;8.80;5.30;;;;;;;17.73;70.76;99322.60;216160;1270;139980;-72
2023/10/12 07:42:54;;;;;;;10.60;5.50;;;;;;;17.73;71.06;99351.17;217603;1268;140706;-72
2023/10/12 07:47:59;;;;;;;22.50;6.30;;;;;;;17.82;70.85;99356.48;217342;1268;140502;-71
2023/10/12 07:53:22;;;;;;;11.30;5.30;;;;;;;18.09;70.88;99362.69;216813;1267;139745;-71
2023/10/12 07:58:29;;;;;;;7.00;3.90;;;;;;;18.44;70.44;99366.50;218528;1268;140854;-73
2023/10/12 08:03:40;;;;;;;13.80;4.80;;;;;;;18.62;69.84;99354.94;218345;1270;140157;-74
2023/10/12 08:08:48;;;;;;;8.30;5.80;;;;;;;18.77;69.35;99347.91;218143;1272;142755;-74
2023/10/12 08:13:59;;;;;;;10.70;5.60;;;;;;;19.04;69.11;99360.27;218911;1267;140627;-74
2023/10/12 08:19:27;;;;;;;15.40;5.10;;;;;;;19.52;68.92;99368.78;218863;1272;140615;-74
2023/10/12 08:24:36;;;;;;;9.40;5.50;;;;;;;20.02;68.38;99373.32;217599;1268;141763;-74
2023/10/12 08:40:18;;;;;;;9.80;4.70;;;;;;;20.00;66.37;99382.89;216309;1271;140349;-74
2023/10/12 08:45:28;;;;;;;7.10;5.40;;;;;;;20.12;66.27;99408.01;217093;1268;140452;-72
2023/10/12 08:50:49;;;;;;;8.70;3.80;;;;;;;20.40;66.09;99411.09;216966;1268;139843;-71
2023/10/12 08:55:55;;;;;;;9.00;4.70;;;;;;;20.49;65.47;99411.31;216871;1271;139674;-69
2023/10/12 09:11:33;;;;;;;13.60;5.20;;;;;;;20.03;64.58;99437.81;216795;1268;140501;-70
2023/10/12 09:16:38;;;;;;;13.90;5.60;;;;;;;19.73;64.68;99451.96;216923;1269;140058;-71
2023/10/12 09:21:57;;;;;;;8.40;5.30;;;;;;;19.52;65.20;99462.05;216351;1268;143089;-70
2023/10/12 09:27:26;;;;;;;13.00;6.00;;;;;;;19.24;65.80;99482.13;217004;1268;140402;-70
2023/10/12 09:32:35;;;;;;;18.40;5.90;;;;;;;18.95;66.55;99498.84;216484;1271;140273;-71
2023/10/12 09:37:51;;;;;;;10.80;5.40;;;;;;;18.63;67.31;99517.91;217406;1268;140901;-72
2023/10/12 09:43:00;;;;;;;15.80;6.30;;;;;;;18.29;68.31;99531.48;216171;1271;140261;-74
2023/10/12 09:48:12;;;;;;;11.00;5.00;;;;;;;17.95;69.36;99538.83;217518;1271;141342;-76
2023/10/12 09:53:41;;;;;;;14.00;5.90;;;;;;;17.77;70.24;99544.75;217027;1269;210532;-76
2023/10/12 09:58:55;;;;;;;6.60;4.80;;;;;;;17.62;70.98;99540.80;216398;1268;139877;-75
2023/10/12 10:04:35;;;;;;;13.60;6.90;;;;;;;17.43;71.67;99534.28;217294;1268;140224;-74
2023/10/12 10:14:44;;;;;;;13.40;6.70;;;;;;;17.14;73.19;99528.80;218017;1270;140461;-75
2023/10/12 10:19:51;;;;;;;13.20;5.80;;;;;;;17.04;73.68;99512.57;218966;1271;142125;-75
2023/10/12 10:24:57;;;;;;;7.00;5.40;;;;;;;16.97;74.13;99509.77;217102;1271;141016;-71
2023/10/12 10:30:25;;;;;;;8.20;5.00;;;;;;;16.94;74.49;99514.85;216740;1273;140194;-77
2023/10/12 10:36:03;;;;;;;9.40;4.60;;;;;;;16.84;74.90;99516.16;217143;1270;140269;-72
2023/10/12 10:41:08;;;;;;;5.30;4.40;;;;;;;16.80;75.32;99508.66;217014;1271;140120;-70
2023/10/12 10:46:26;;;;;;;7.40;5.30;;;;;;;16.65;75.37;99505.09;217571;1270;140333;-71
2023/10/12 10:51:34;;;;;;;6.90;4.70;;;;;;;16.54;76.00;99512.42;216524;1271;140022;-69
2023/10/12 10:56:47;;;;;;;5.70;4.30;;;;;;;16.42;76.33;99511.11;216920;1271;141331;-71
2023/10/12 11:01:52;;;;;;;11.50;4.70;;;;;;;16.31;76.68;99517.98;215334;1273;980481;-69
2023/10/12 11:06:58;;;;;;;8.00;4.70;;;;;;;16.36;77.53;99512.80;216650;1271;140463;-72
2023/10/12 11:12:04;;;;;;;5.40;4.20;;;;;;;16.37;77.78;99509.84;217365;1268;140752;-71
2023/10/12 11:17:09;;;;;;;5.30;4.20;;;;;;;16.41;78.14;99515.63;216073;1271;140400;-75
2023/10/12 11:22:14;;;;;;;8.80;4.20;;;;;;;16.37;78.40;99506.23;216690;1268;139919;-72
2023/10/12 11:27:34;;;;;;;9.60;4.10;;;;;;;16.29;78.59;99502.66;216186;1270;139921;-72
2023/10/12 11:32:55;;;;;;;7.60;4.80;;;;;;;16.25;79.11;99513.06;217521;1271;141364;-74
2023/10/12 11:38:01;;;;;;;5.20;4.20;;;;;;;16.24;79.36;99506.25;217126;1268;141752;-74
2023/10/12 11:43:06;;;;;;;8.30;4.80;;;;;;;16.28;79.84;99507.67;217222;1268;139652;-73
2023/10/12 11:48:26;;;;;;;11.90;5.80;;;;;;;16.33;80.20;99514.48;216490;1268;141145;-75
2023/10/12 11:53:32;;;;;;;10.00;5.20;;;;;;;16.34;80.34;99518.35;217038;1268;140465;-72
2023/10/12 11:58:36;;;;;;;13.40;6.10;;;;;;;16.34;80.70;99517.76;217490;1269;139945;-72
2023/10/12 12:03:41;;;;;;;8.50;5.70;;;;;;;16.35;80.87;99527.98;218928;1268;139768;-71
2023/10/12 12:08:48;;;;;;;10.30;6.30;;;;;;;16.30;80.91;99531.88;217015;1267;139995;-76
2023/10/12 12:13:52;;;;;;;14.70;6.30;;;;;;;16.26;81.03;99533.72;217571;1271;140399;-76
2023/10/12 12:18:58;;;;;;;9.50;6.30;;;;;;;16.24;81.33;99532.92;216229;1270;141429;-76
2023/10/12 12:24:22;;;;;;;7.80;4.70;;;;;;;16.21;81.47;99534.17;218349;1268;140658;-74
2023/10/12 12:29:27;;;;;;;12.70;5.30;;;;;;;16.24;81.80;99532.33;216863;1270;140126;-72
2023/10/12 12:34:54;;;;;;;7.30;5.80;;;;;;;16.23;81.84;99525.66;216229;1270;141074;-74
2023/10/12 12:40:45;;;;;;;10.10;5.40;;;;;;;16.23;81.97;99503.88;216940;1268;139726;-76
2023/10/12 12:45:27;;;;;;;12.40;5.80;;;;;;;16.19;82.24;99502.27;216883;1272;140277;-72
2023/10/12 12:50:37;;;;;;;9.30;6.50;;;;;;;16.17;82.49;99519.59;216568;1272;140146;-74
2023/10/12 12:55:43;;;;;;;10.10;5.70;;;;;;;16.13;82.71;99527.13;216970;1271;142034;-72
2023/10/12 13:00:52;;;;;;;12.90;7.20;;;;;;;16.11;82.80;99532.46;217100;1268;140029;-70
2023/10/12 13:05:58;;;;;;;7.40;5.00;;;;;;;16.11;83.10;99530.48;216473;1268;141029;-73
2023/10/12 13:11:04;;;;;;;8.20;5.80;;;;;;;16.17;83.34;99538.41;217168;1268;139810;-72
2023/10/12 13:16:14;;;;;;;9.00;6.50;;;;;;;16.22;83.41;99531.15;216568;1273;139894;-73
2023/10/12 13:21:22;;;;;;;13.00;6.80;;;;;;;16.25;83.45;99538.73;216185;1271;140456;-75
2023/10/12 13:26:27;;;;;;;9.60;6.00;;;;;;;16.31;83.58;99535.27;218904;1269;221259;-71
2023/10/12 13:31:31;;;;;;;12.10;6.00;;;;;;;16.29;83.52;99538.76;218862;1270;140187;-71
2023/10/12 13:36:39;;;;;;;10.90;6.50;;;;;;;16.30;83.68;99551.19;219046;1268;141624;-73
2023/10/12 13:41:43;;;;;;;;;;;;;;;16.33;83.52;99550.20;218935;1268;140567;-72
2023/10/12 13:46:48;;;;;;;9.30;5.80;;;;;;;16.32;83.67;99543.75;219341;1270;126599;-73
2023/10/12 13:51:54;;;;;;;7.20;5.70;;;;;;;16.38;83.61;99533.02;218945;1268;141109;-73
2023/10/12 13:57:02;;;;;;;8.20;6.90;;;;;;;16.43;83.59;99539.77;218899;1268;140580;-72
2023/10/12 14:06:43;;;;;;;9.30;5.40;;;;;;;16.43;83.57;99564.59;214542;1301;635769;-72
2023/10/12 14:11:51;;;;;;;14.50;6.10;;;;;;;16.43;83.48;99571.09;217108;1270;138628;-72
2023/10/12 14:16:59;;;;;;;10.70;6.00;;;;;;;16.43;83.72;99574.48;217220;1270;194395;-71
2023/10/12 14:22:05;;;;;;;10.90;7.00;;;;;;;16.40;83.75;99576.77;216927;1270;139783;-73
2023/10/12 14:27:09;;;;;;;17.30;7.00;;;;;;;16.30;83.71;99565.23;216743;1270;139287;-72
2023/10/12 14:32:14;;;;;;;23.50;7.40;;;;;;;16.20;84.00;99559.73;216554;1268;139709;-75
2023/10/12 14:37:22;;;;;;;10.40;6.10;;;;;;;16.18;84.26;99564.33;216618;1267;140569;-74
2023/10/12 14:42:29;;;;;;;9.60;5.70;;;;;;;16.14;84.48;99572.84;216519;1266;139423;-72
2023/10/12 14:47:35;;;;;;;13.60;7.30;;;;;;;16.09;84.49;99576.13;217123;1267;139147;-71
2023/10/12 14:52:43;;;;;;;10.90;6.00;;;;;;;16.02;84.56;99575.35;217319;1267;230157;-70
2023/10/12 14:57:49;;;;;;;8.40;6.40;;;;;;;15.94;84.66;99574.02;216465;1267;139919;-71
2023/10/12 15:02:57;;;;;;;11.60;6.30;;;;;;;15.86;84.90;99571.86;216961;1269;139170;-70
2023/10/12 15:08:07;;;;;;;13.20;7.40;;;;;;;15.79;85.08;99569.94;216334;1269;140239;-71
2023/10/12 15:13:16;;;;;;;13.30;6.80;;;;;;;15.80;85.36;99574.23;216938;1269;139584;-70
2023/10/12 15:18:25;;;;;;;9.80;5.60;;;;;;;15.83;85.53;99582.02;216785;1269;140678;-70
2023/10/12 15:23:34;;;;;;;10.30;6.50;;;;;;;15.83;85.50;99590.80;216880;1268;140173;-70
2023/10/12 15:28:40;;;;;;;8.60;6.50;;;;;;;15.79;85.48;99594.23;217096;1270;139213;-72
2023/10/12 15:33:50;;;;;;;9.40;4.80;;;;;;;15.71;85.07;99606.92;216429;1269;139314;-74
2023/10/12 15:39:14;;;;;;;5.00;3.80;;;;;;;15.59;84.64;99613.11;217477;1270;140245;-72
2023/10/12 15:44:22;;;;;;;9.20;4.60;;;;;;;15.42;83.96;99618.20;216428;1269;139543;-71
2023/10/12 15:49:29;;;;;;;3.60;2.90;;;;;;;15.25;83.71;99622.45;216675;1268;140263;-72
2023/10/12 15:54:35;;;;;;;7.00;2.20;;;;;;;15.10;83.60;99629.15;216906;1268;139701;-70
2023/10/12 15:59:44;;;;;;;;;;;;;;;14.96;83.50;99633.64;217600;1269;138993;-70
2023/10/12 16:04:53;;;;;;;6.10;3.20;;;;;;;14.80;83.49;99635.38;217277;1272;125886;-69
2023/10/12 16:10:05;;;;;;;12.30;3.90;;;;;;;14.71;83.44;99634.59;218781;1268;139847;-71
2023/10/12 16:15:12;;;;;;;9.30;4.80;;;;;;;14.61;83.46;99633.23;218250;1269;139974;-70
2023/10/12 16:20:17;;;;;;;6.10;4.00;;;;;;;14.57;83.53;99638.00;217303;1268;139405;-71
2023/10/12 16:25:22;;;;;;;4.70;3.90;;;;;;;14.49;83.34;99636.08;217372;1269;139308;-70
2023/10/12 16:30:34;;;;;;;6.90;3.40;;;;;;;14.37;83.47;99637.46;217507;1269;139635;-70
2023/10/12 16:35:43;;;;;;;4.20;3.50;;;;;;;14.29;83.54;99639.04;216686;1270;139351;-70
2023/10/12 16:40:50;;;;;;;7.30;2.90;;;;;;;14.21;83.52;99642.48;216950;1271;139474;-70
2023/10/12 16:45:57;;;;;;;3.60;3.10;;;;;;;14.14;83.68;99642.33;216276;1272;139908;-70
2023/10/12 16:51:06;;;;;;;6.00;3.20;;;;;;;14.07;83.71;99640.04;216630;1269;139646;-73
2023/10/12 16:56:11;;;;;;;4.40;2.40;;;;;;;13.96;83.79;99645.50;216490;1272;139359;-72
2023/10/12 17:01:16;;;;;;;5.40;4.10;;;;;;;13.81;83.96;99655.00;216380;1272;140223;-73
2023/10/12 17:06:20;;;;;;;6.20;3.20;;;;;;;13.70;84.06;99665.27;217443;1273;139902;-70
2023/10/12 17:11:26;;;;;;;7.90;3.60;;;;;;;13.64;84.41;99678.61;216476;1272;139830;-71
2023/10/12 17:16:34;;;;;;;5.10;3.00;;;;;;;13.65;84.69;99688.59;216643;1270;139556;-71
2023/10/12 17:21:42;;;;;;;9.10;3.40;;;;;;;13.65;84.70;99691.14;216577;1272;139335;-71
2023/10/12 17:26:58;;;;;;;16.00;3.30;;;;;;;13.61;84.79;99687.42;216981;1268;139568;-71
2023/10/12 17:32:09;;;;;;;4.00;2.80;;;;;;;13.59;84.86;99690.94;216356;1269;139384;-72
2023/10/12 17:37:16;;;;;;;7.30;2.50;;;;;;;13.55;84.70;99696.95;216092;1269;139160;-72
2023/10/12 17:42:24;;;;;;;3.90;3.00;;;;;;;13.50;84.90;99700.77;217150;1262;139538;-73
2023/10/12 17:47:31;;;;;;;8.90;2.70;;;;;;;13.46;84.90;99707.58;216613;1262;139700;-70
2023/10/12 17:52:43;;;;;;;6.70;2.60;;;;;;;13.42;84.75;99712.82;216691;1262;140098;-71
2023/10/12 17:57:51;;;;;;;6.20;3.10;;;;;;;13.40;85.10;99710.38;218685;1262;139684;-72
2023/10/12 18:02:57;;;;;;;8.20;3.50;;;;;;;13.39;85.10;99711.27;217677;1262;139224;-71
2023/10/12 18:08:05;;;;;;;3.30;2.60;;;;;;;13.38;85.07;99713.58;219663;1262;141021;-72
2023/10/12 18:13:12;;;;;;;4.80;2.80;;;;;;;13.39;85.36;99719.10;218438;1261;140047;-72
2023/10/12 18:18:16;;;;;;;4.20;3.30;;;;;;;13.40;85.33;99718.63;219830;1262;139481;-73
2023/10/12 18:23:21;;;;;;;3.00;2.70;;;;;;;13.41;85.35;99719.87;217942;1262;139600;-69
2023/10/12 18:28:28;;;;;;;;;;;;;;;13.41;85.49;99727.59;218058;1262;140758;-71
2023/10/12 18:33:35;;;;;;;7.70;3.30;;;;;;;13.41;85.55;99734.11;218180;1262;125904;-70
2023/10/12 18:38:42;;;;;;;3.70;3.30;;;;;;;13.40;85.60;99744.71;217924;1262;141212;-72
2023/10/12 18:43:50;;;;;;;4.40;2.90;;;;;;;13.41;85.85;99745.95;216954;1263;139954;-73
2023/10/12 18:48:57;;;;;;;5.00;2.50;;;;;;;13.41;85.83;99744.94;216820;1265;139978;-71
2023/10/12 18:54:08;;;;;;;5.90;3.20;;;;;;;13.40;85.84;99742.09;216879;1263;139501;-71
2023/10/12 18:59:20;;;;;;;5.60;3.30;;;;;;;13.37;85.88;99752.92;217212;1262;140384;-71
2023/10/12 19:04:26;;;;;;;4.40;3.30;;;;;;;13.36;86.11;99756.34;217677;1266;141434;-71
2023/10/12 19:09:31;;;;;;;9.00;3.70;;;;;;;13.38;86.03;99760.11;216816;1266;140743;-71
2023/10/12 19:14:36;;;;;;;7.80;4.20;;;;;;;13.40;86.27;99758.20;217644;1262;139330;-71
2023/10/12 19:19:42;;;;;;;5.10;4.00;;;;;;;13.42;86.18;99764.82;216885;1262;140146;-72
2023/10/12 19:24:51;;;;;;;9.20;3.90;;;;;;;13.45;86.45;99775.54;217327;1263;139642;-71
2023/10/12 19:29:58;;;;;;;6.70;3.20;;;;;;;13.47;86.33;99776.30;217555;1262;140113;-71
2023/10/12 19:35:08;;;;;;;6.50;3.70;;;;;;;13.48;86.20;99783.48;217456;1262;139999;-72
2023/10/12 19:40:18;;;;;;;7.30;4.00;;;;;;;13.49;86.20;99787.08;217690;1266;139826;-70
2023/10/12 19:45:25;;;;;;;4.50;3.40;;;;;;;13.48;86.33;99785.09;217797;1262;140334;-70
2023/10/12 19:50:38;;;;;;;5.80;3.30;;;;;;;13.49;86.23;99783.89;216544;1262;223412;-70
2023/10/12 19:55:46;;;;;;;6.40;4.20;;;;;;;13.50;86.07;99786.30;217901;1262;139436;-70
2023/10/12 20:00:54;;;;;;;;;;;;;;;13.51;86.08;99793.48;218995;1262;139842;-72
2023/10/12 20:06:08;;;;;;;11.90;4.00;;;;;;;13.48;86.10;99792.11;219444;1262;210855;-71
2023/10/12 20:11:14;;;;;;;6.10;3.30;;;;;;;13.51;86.28;99792.50;218176;1262;139570;-72
2023/10/12 20:16:24;;;;;;;;;;;;;;;13.48;85.94;99791.68;219442;1262;140237;-72
2023/10/12 20:21:33;;;;;;;7.40;3.30;;;;;;;13.43;85.93;99791.27;217300;1262;126249;-70
2023/10/12 20:26:38;;;;;;;5.50;3.90;;;;;;;13.44;85.99;99791.40;217208;1262;139647;-73
2023/10/12 20:31:43;;;;;;;8.40;4.00;;;;;;;13.43;85.84;99789.19;218030;1263;139845;-73
2023/10/12 20:36:48;;;;;;;8.90;5.00;;;;;;;13.40;85.86;99792.80;218647;1262;140350;-71
2023/10/12 20:41:52;;;;;;;5.80;3.50;;;;;;;13.39;85.77;99796.42;217261;1265;139386;-71
2023/10/12 20:46:57;;;;;;;8.40;4.30;;;;;;;13.39;85.72;99800.33;216583;1263;140534;-72
2023/10/12 20:52:01;;;;;;;8.20;4.50;;;;;;;13.37;85.59;99798.23;217810;1262;141065;-72
2023/10/12 20:57:06;;;;;;;8.50;4.30;;;;;;;13.34;85.32;99802.15;216717;1263;139231;-70
2023/10/12 21:02:18;;;;;;;7.10;4.50;;;;;;;13.33;85.61;99807.11;217874;1262;141633;-72
2023/10/12 21:07:25;;;;;;;8.40;4.10;;;;;;;13.29;85.37;99804.50;217454;1262;140092;-70
2023/10/12 21:12:30;;;;;;;5.60;4.20;;;;;;;13.27;85.39;99798.37;217760;1263;140051;-71
2023/10/12 21:17:39;;;;;;;11.50;4.20;;;;;;;13.25;85.46;99799.67;216586;1261;140206;-68
2023/10/12 21:22:52;;;;;;;7.30;3.70;;;;;;;13.20;85.35;99802.89;217353;1262;139311;-71
2023/10/12 21:27:57;;;;;;;7.80;3.60;;;;;;;13.17;85.36;99808.52;217332;1260;139593;-71
2023/10/12 21:33:10;;;;;;;8.90;4.20;;;;;;;13.16;85.55;99810.48;216917;1262;141090;-71
2023/10/12 21:38:16;;;;;;;9.00;3.00;;;;;;;13.13;85.30;99811.05;217177;1263;142530;-71
2023/10/12 21:43:20;;;;;;;8.90;4.40;;;;;;;13.07;85.21;99804.27;216825;1263;140846;-71
2023/10/12 21:48:26;;;;;;;9.80;4.50;;;;;;;13.07;85.38;99806.80;217513;1262;139469;-71
2023/10/12 21:53:32;;;;;;;7.80;3.80;;;;;;;13.08;85.42;99808.45;218629;1262;141185;-70
2023/10/12 21:58:38;;;;;;;7.70;3.20;;;;;;;13.07;85.54;99812.84;218982;1262;139832;-70
2023/10/12 22:03:48;;;;;;;8.40;3.70;;;;;;;13.07;85.42;99807.27;219566;1265;139471;-71
2023/10/12 22:08:56;;;;;;;7.00;3.40;;;;;;;13.06;85.37;99811.76;219806;1262;139789;-71
2023/10/12 22:19:23;;;;;;;6.50;3.30;;;;;;;13.07;85.71;99815.68;218136;1262;139913;-70
2023/10/12 22:24:28;;;;;;;6.50;3.70;;;;;;;13.08;85.78;99812.48;217032;1263;140544;-70
2023/10/12 22:29:33;;;;;;;8.50;3.70;;;;;;;13.07;85.67;99813.05;216905;1262;139413;-70
2023/10/12 22:34:41;;;;;;;8.30;3.60;;;;;;;13.02;85.56;99810.90;217305;1262;140033;-71
2023/10/12 22:39:50;;;;;;;5.50;3.50;;;;;;;12.97;85.78;99803.07;217011;1261;140308;-71
2023/10/12 22:44:55;;;;;;;5.10;3.30;;;;;;;12.96;85.68;99807.82;217284;1262;139513;-70
2023/10/12 22:50:00;;;;;;;9.40;4.20;;;;;;;12.95;85.58;99819.52;216641;1262;139297;-70
2023/10/12 22:55:10;;;;;;;8.20;3.30;;;;;;;12.94;85.96;99825.34;217621;1262;140053;-70
2023/10/12 23:00:21;;;;;;;7.70;3.00;;;;;;;12.91;85.92;99830.33;216966;1265;140511;-70
2023/10/12 23:05:26;;;;;;;5.80;3.80;;;;;;;12.89;85.91;99829.71;216885;1265;139856;-70
2023/10/12 23:10:38;;;;;;;8.90;5.70;;;;;;;12.88;85.92;99836.39;217395;1262;140572;-71
2023/10/12 23:15:44;;;;;;;14.30;4.40;;;;;;;12.90;86.10;99834.42;216949;1262;139388;-70
2023/10/12 23:21:01;;;;;;;12.00;4.30;;;;;;;12.91;86.19;99830.22;217069;1263;139720;-70
2023/10/12 23:26:07;;;;;;;7.30;3.20;;;;;;;12.91;85.95;99834.17;216777;1263;139784;-70
2023/10/12 23:31:15;;;;;;;5.80;3.60;;;;;;;12.87;86.39;99837.66;217745;1261;142226;-70
2023/10/12 23:36:21;;;;;;;7.60;3.90;;;;;;;12.84;86.37;99839.98;216912;1263;139899;-70
2023/10/12 23:41:31;;;;;;;6.00;3.30;;;;;;;12.85;86.37;99845.38;218738;1262;140132;-71
2023/10/12 23:46:43;;;;;;;4.80;3.30;;;;;;;12.84;86.47;99842.28;217935;1262;140585;-70
2023/10/12 23:51:49;;;;;;;5.40;2.90;;;;;;;12.81;86.35;99836.79;218215;1262;139567;-70
2023/10/12 23:57:03;;;;;;;7.80;3.70;;;;;;;12.77;86.58;99837.70;218820;1262;139909;-71
